Time;durP1;ratioP1;P1;durP2;ratioP2;P2;SDS_P1;SDS_P2;PMS_P1;PMS_P2;Temp;Humidity;BMP_temperature;BMP_pressure;BME280_temperature;BME280_humidity;BME280_pressure;Samples;Min_cycle;Max_cycle;Signal;HPM_P1;HPM_P2
2022/07/14 00:02:06;;;;;;;9.10;1.27;;;;;;;;;;5325007;28;20016;-70
2022/07/14 00:04:37;;;;;;;12.93;1.83;;;;;;;;;;5326002;28;20122;-70
2022/07/14 00:07:08;;;;;;;11.02;1.05;;;;;;;;;;5325904;28;20016;-71
2022/07/14 00:09:40;;;;;;;12.83;1.27;;;;;;;;;;5325039;28;20304;-71
2022/07/14 00:12:11;;;;;;;10.75;1.00;;;;;;;;;;5325891;28;20662;-70
2022/07/14 00:14:42;;;;;;;9.98;1.38;;;;;;;;;;5325780;28;20289;-70
2022/07/14 00:17:13;;;;;;;13.52;1.70;;;;;;;;;;5325229;28;20106;-70
2022/07/14 00:19:44;;;;;;;10.07;0.97;;;;;;;;;;5325766;28;20261;-70
2022/07/14 00:22:16;;;;;;;11.98;1.52;;;;;;;;;;5324762;28;20282;-71
2022/07/14 00:24:47;;;;;;;11.27;1.57;;;;;;;;;;5325601;28;20032;-71
2022/07/14 00:27:18;;;;;;;11.02;1.50;;;;;;;;;;5324634;28;20741;-71
2022/07/14 00:29:49;;;;;;;11.10;1.60;;;;;;;;;;5324914;28;20216;-70
2022/07/14 00:32:20;;;;;;;10.23;1.80;;;;;;;;;;5325176;28;20264;-70
2022/07/14 00:34:52;;;;;;;14.07;1.60;;;;;;;;;;5325859;28;20827;-71
2022/07/14 00:37:23;;;;;;;11.60;1.73;;;;;;;;;;5324524;28;20254;-70
2022/07/14 00:39:54;;;;;;;10.57;1.65;;;;;;;;;;5325618;28;20358;-70
2022/07/14 00:42:45;;;;;;;11.93;1.45;;;;;;;;;;5324988;28;20016;-70
2022/07/14 00:45:18;;;;;;;12.00;1.70;;;;;;;;;;5323841;28;20046;-70
2022/07/14 00:47:49;;;;;;;11.13;2.10;;;;;;;;;;5325549;28;20022;-70
2022/07/14 00:50:21;;;;;;;14.20;1.88;;;;;;;;;;5324529;28;20024;-70
2022/07/14 00:52:52;;;;;;;9.70;1.90;;;;;;;;;;5325002;28;20031;-70
2022/07/14 00:55:23;;;;;;;12.43;1.57;;;;;;;;;;5324756;28;20030;-70
2022/07/14 00:57:54;;;;;;;12.63;1.70;;;;;;;;;;5324449;28;20272;-70
2022/07/14 01:00:26;;;;;;;11.67;1.67;;;;;;;;;;5324629;28;20323;-70
2022/07/14 01:02:57;;;;;;;10.95;1.23;;;;;;;;;;5324870;27;20344;-70
2022/07/14 01:05:28;;;;;;;13.70;2.00;;;;;;;;;;5323634;28;20069;-70
2022/07/14 01:07:59;;;;;;;9.93;1.33;;;;;;;;;;5324743;28;20024;-71
2022/07/14 01:10:30;;;;;;;10.88;1.75;;;;;;;;;;5324412;28;20098;-70
2022/07/14 01:13:04;;;;;;;13.05;2.35;;;;;;;;;;5323546;28;20465;-70
2022/07/14 01:15:35;;;;;;;15.38;1.90;;;;;;;;;;5324655;28;20253;-70
2022/07/14 01:18:06;;;;;;;13.98;2.33;;;;;;;;;;5324676;28;20151;-70
2022/07/14 01:20:37;;;;;;;16.38;2.17;;;;;;;;;;5323224;28;20474;-69
2022/07/14 01:23:08;;;;;;;13.75;2.15;;;;;;;;;;5324347;28;20671;-71
2022/07/14 01:25:40;;;;;;;11.80;2.10;;;;;;;;;;5323139;28;20306;-71
2022/07/14 01:28:11;;;;;;;6.67;1.30;;;;;;;;;;5324186;28;20293;-71
2022/07/14 01:30:42;;;;;;;14.57;1.70;;;;;;;;;;5324292;28;20755;-70
2022/07/14 01:33:13;;;;;;;12.77;1.65;;;;;;;;;;5323071;28;20269;-71
2022/07/14 01:35:44;;;;;;;13.88;1.50;;;;;;;;;;5324002;28;20262;-71
2022/07/14 01:38:16;;;;;;;9.40;1.73;;;;;;;;;;5323443;28;20381;-70
2022/07/14 01:40:47;;;;;;;14.38;2.28;;;;;;;;;;5323388;28;20330;-71
2022/07/14 01:43:18;;;;;;;9.50;1.70;;;;;;;;;;5323764;28;20019;-70
2022/07/14 01:45:49;;;;;;;15.90;2.30;;;;;;;;;;5324107;28;20039;-70
2022/07/14 01:48:21;;;;;;;13.60;2.27;;;;;;;;;;5322694;28;20023;-70
2022/07/14 01:50:52;;;;;;;11.30;1.67;;;;;;;;;;5324310;28;20269;-71
2022/07/14 01:53:23;;;;;;;11.82;1.83;;;;;;;;;;5323641;28;20265;-71
2022/07/14 01:55:54;;;;;;;13.80;2.67;;;;;;;;;;5323123;28;20253;-70
2022/07/14 01:58:25;;;;;;;13.90;1.80;;;;;;;;;;5323391;28;20265;-70
2022/07/14 02:03:46;;;;;;;10.25;1.88;;;;;;;;;;5323745;28;20035;-71
2022/07/14 02:06:18;;;;;;;12.25;2.15;;;;;;;;;;5323638;28;20352;-71
2022/07/14 02:08:49;;;;;;;12.82;1.85;;;;;;;;;;5323031;28;20022;-70
2022/07/14 02:14:10;;;;;;;10.95;2.58;;;;;;;;;;5323461;28;20362;-71
2022/07/14 02:16:41;;;;;;;8.90;1.35;;;;;;;;;;5322529;28;20016;-70
2022/07/14 02:19:13;;;;;;;13.07;1.47;;;;;;;;;;5323263;28;20476;-70
2022/07/14 02:21:44;;;;;;;15.00;1.83;;;;;;;;;;5322993;28;20648;-70
2022/07/14 02:24:15;;;;;;;13.27;1.70;;;;;;;;;;5322626;28;20024;-69
2022/07/14 02:26:50;;;;;;;12.52;1.60;;;;;;;;;;5323433;28;20019;-69
2022/07/14 02:29:21;;;;;;;13.73;1.48;;;;;;;;;;5322333;28;20265;-69
2022/07/14 02:31:52;;;;;;;13.40;2.20;;;;;;;;;;5323502;28;20016;-68
2022/07/14 02:34:24;;;;;;;13.10;2.50;;;;;;;;;;5322763;28;20037;-69
2022/07/14 02:36:55;;;;;;;13.10;2.28;;;;;;;;;;5322757;28;20007;-69
2022/07/14 02:39:26;;;;;;;15.57;2.43;;;;;;;;;;5323007;28;20106;-71
2022/07/14 02:41:57;;;;;;;12.80;2.05;;;;;;;;;;5323442;28;20257;-69
2022/07/14 02:44:28;;;;;;;15.10;1.80;;;;;;;;;;5322048;28;20039;-68
2022/07/14 02:47:00;;;;;;;13.40;1.95;;;;;;;;;;5323195;28;20011;-71
2022/07/14 02:49:31;;;;;;;13.35;1.98;;;;;;;;;;5324406;28;20027;-69
2022/07/14 02:52:03;;;;;;;14.38;3.15;;;;;;;;;;5326605;28;20087;-69
2022/07/14 02:54:34;;;;;;;12.43;2.40;;;;;;;;;;5327201;28;20266;-71
2022/07/14 02:57:05;;;;;;;10.23;2.22;;;;;;;;;;5326454;28;20363;-69
2022/07/14 02:59:39;;;;;;;13.73;2.53;;;;;;;;;;5327447;28;20023;-69
2022/07/14 03:02:10;;;;;;;11.60;2.35;;;;;;;;;;5327130;28;20273;-69
2022/07/14 03:04:42;;;;;;;10.15;2.35;;;;;;;;;;5326360;28;20068;-69
2022/07/14 03:07:13;;;;;;;12.65;2.80;;;;;;;;;;5327197;28;20261;-69
2022/07/14 03:09:44;;;;;;;12.97;3.33;;;;;;;;;;5326931;28;20264;-69
2022/07/14 03:12:15;;;;;;;14.45;3.28;;;;;;;;;;5326338;28;20269;-69
2022/07/14 03:14:46;;;;;;;15.70;3.33;;;;;;;;;;5327093;28;20257;-69
2022/07/14 03:17:18;;;;;;;12.40;2.67;;;;;;;;;;5327003;28;20276;-69
2022/07/14 03:19:50;;;;;;;12.93;2.50;;;;;;;;;;5326387;28;20284;-70
2022/07/14 03:22:21;;;;;;;14.68;2.33;;;;;;;;;;5326253;28;20491;-70
2022/07/14 03:24:52;;;;;;;13.70;3.20;;;;;;;;;;5326965;28;20028;-70
2022/07/14 03:27:24;;;;;;;15.95;4.03;;;;;;;;;;5325778;28;20360;-69
2022/07/14 03:29:55;;;;;;;14.95;2.70;;;;;;;;;;5327099;28;20024;-70
2022/07/14 03:32:27;;;;;;;15.20;2.33;;;;;;;;;;5325292;28;20044;-70
2022/07/14 03:34:59;;;;;;;15.93;2.90;;;;;;;;;;5326790;28;20094;-70
2022/07/14 03:37:30;;;;;;;12.18;2.90;;;;;;;;;;5326331;27;20326;-70
2022/07/14 03:40:02;;;;;;;15.07;2.95;;;;;;;;;;5325591;28;20467;-69
2022/07/14 03:42:34;;;;;;;19.58;3.55;;;;;;;;;;5326154;28;20465;-69
2022/07/14 03:45:05;;;;;;;17.97;3.00;;;;;;;;;;5326049;28;20562;-70
2022/07/14 03:47:36;;;;;;;15.25;3.42;;;;;;;;;;5325386;28;20264;-69
2022/07/14 03:50:08;;;;;;;16.23;3.53;;;;;;;;;;5326318;28;20490;-69
2022/07/14 03:52:39;;;;;;;12.73;2.92;;;;;;;;;;5326233;27;20273;-70
2022/07/14 03:55:10;;;;;;;15.25;2.72;;;;;;;;;;5325484;28;20016;-70
2022/07/14 03:57:42;;;;;;;16.35;3.20;;;;;;;;;;5326075;28;20253;-69
2022/07/14 04:00:13;;;;;;;14.68;2.72;;;;;;;;;;5326265;28;20064;-71
2022/07/14 04:02:44;;;;;;;18.10;3.80;;;;;;;;;;5324636;28;20031;-71
2022/07/14 04:05:16;;;;;;;12.70;2.97;;;;;;;;;;5325996;28;20417;-71
2022/07/14 04:07:47;;;;;;;12.68;2.95;;;;;;;;;;5325300;28;20019;-69
2022/07/14 04:10:18;;;;;;;14.13;3.33;;;;;;;;;;5325583;28;20031;-69
2022/07/14 04:12:50;;;;;;;15.02;3.05;;;;;;;;;;5326111;28;20049;-68
2022/07/14 04:15:23;;;;;;;15.95;3.70;;;;;;;;;;5324668;28;20408;-69
2022/07/14 04:17:54;;;;;;;11.77;4.00;;;;;;;;;;5326040;28;20015;-69
2022/07/14 04:20:26;;;;;;;13.38;3.05;;;;;;;;;;5325378;28;20548;-70
2022/07/14 04:22:57;;;;;;;11.55;3.08;;;;;;;;;;5325072;28;20040;-69
2022/07/14 04:25:28;;;;;;;12.52;3.15;;;;;;;;;;5325237;28;20039;-70
2022/07/14 04:27:59;;;;;;;10.97;3.50;;;;;;;;;;5325775;28;20152;-70
2022/07/14 04:30:30;;;;;;;14.05;3.08;;;;;;;;;;5324797;28;20295;-70
2022/07/14 04:33:02;;;;;;;13.47;3.27;;;;;;;;;;5325451;28;20020;-70
2022/07/14 04:35:33;;;;;;;14.93;3.90;;;;;;;;;;5324735;28;20334;-69
2022/07/14 04:38:04;;;;;;;17.08;4.18;;;;;;;;;;5325372;28;20289;-70
2022/07/14 04:40:36;;;;;;;17.60;3.90;;;;;;;;;;5324994;28;20269;-70
2022/07/14 04:43:07;;;;;;;13.40;3.97;;;;;;;;;;5324363;27;20756;-70
2022/07/14 04:45:38;;;;;;;14.45;3.97;;;;;;;;;;5324990;28;20475;-69
2022/07/14 04:48:09;;;;;;;16.23;3.67;;;;;;;;;;5325086;28;20756;-69
2022/07/14 04:53:30;;;;;;;17.63;4.20;;;;;;;;;;5324972;28;20261;-70
2022/07/14 04:56:02;;;;;;;13.05;4.10;;;;;;;;;;5324325;28;20008;-69
2022/07/14 04:58:33;;;;;;;16.75;4.05;;;;;;;;;;5324126;28;20019;-69
2022/07/14 05:01:04;;;;;;;15.60;3.35;;;;;;;;;;5324836;28;20050;-71
2022/07/14 05:03:38;;;;;;;17.27;3.45;;;;;;;;;;5324115;28;20016;-70
2022/07/14 05:06:11;;;;;;;10.75;3.33;;;;;;;;;;5324786;28;20273;-70
2022/07/14 05:08:42;;;;;;;19.65;3.30;;;;;;;;;;5324577;28;20066;-70
2022/07/14 05:11:13;;;;;;;20.30;4.35;;;;;;;;;;5323609;28;20050;-70
2022/07/14 05:13:44;;;;;;;17.85;4.03;;;;;;;;;;5323694;28;20476;-69
2022/07/14 05:16:15;;;;;;;16.83;4.68;;;;;;;;;;5323131;28;20068;-69
2022/07/14 05:18:47;;;;;;;16.70;4.00;;;;;;;;;;5323588;28;20461;-71
2022/07/14 05:21:18;;;;;;;19.25;3.70;;;;;;;;;;5323784;28;20312;-70
2022/07/14 05:23:49;;;;;;;16.27;4.57;;;;;;;;;;5324452;28;20526;-70
2022/07/14 05:26:21;;;;;;;15.35;3.90;;;;;;;;;;5323163;28;20640;-70
2022/07/14 05:28:52;;;;;;;16.48;3.40;;;;;;;;;;5324444;28;20011;-71
2022/07/14 05:31:23;;;;;;;12.60;3.95;;;;;;;;;;5323616;28;20026;-70
2022/07/14 05:33:56;;;;;;;16.03;4.00;;;;;;;;;;5323426;28;20026;-70
2022/07/14 05:36:28;;;;;;;16.05;3.90;;;;;;;;;;5323487;28;20269;-70
2022/07/14 05:38:59;;;;;;;14.90;3.97;;;;;;;;;;5322915;28;20027;-72
2022/07/14 05:41:31;;;;;;;17.55;3.90;;;;;;;;;;5323815;28;20011;-71
2022/07/14 05:44:02;;;;;;;20.65;3.97;;;;;;;;;;5323706;28;20035;-71
2022/07/14 05:46:33;;;;;;;14.90;3.87;;;;;;;;;;5323059;28;20049;-71
2022/07/14 05:49:04;;;;;;;18.98;4.43;;;;;;;;;;5319809;28;20287;-71
2022/07/14 05:51:35;;;;;;;20.80;5.55;;;;;;;;;;5323555;28;20019;-72
2022/07/14 05:54:06;;;;;;;16.27;4.13;;;;;;;;;;5322599;28;20323;-71
2022/07/14 05:56:38;;;;;;;18.63;3.90;;;;;;;;;;5323522;28;20289;-73
2022/07/14 05:59:09;;;;;;;16.45;3.78;;;;;;;;;;5323042;28;20372;-70
2022/07/14 06:01:40;;;;;;;16.77;3.42;;;;;;;;;;5322238;28;20462;-71
2022/07/14 06:04:12;;;;;;;15.35;3.90;;;;;;;;;;5323085;28;20756;-70
2022/07/14 06:06:46;;;;;;;20.85;3.65;;;;;;;;;;5323457;28;20008;-71
2022/07/14 06:09:17;;;;;;;15.73;3.33;;;;;;;;;;5322397;28;20106;-71
2022/07/14 06:11:49;;;;;;;17.87;3.90;;;;;;;;;;5323072;28;20098;-70
2022/07/14 06:14:21;;;;;;;16.10;3.67;;;;;;;;;;5322449;28;20269;-71
2022/07/14 06:16:52;;;;;;;12.85;2.38;;;;;;;;;;5323559;28;20285;-71
2022/07/14 06:19:23;;;;;;;15.02;2.75;;;;;;;;;;5323037;28;20019;-71
2022/07/14 06:21:54;;;;;;;21.03;2.90;;;;;;;;;;5322723;28;20043;-71
2022/07/14 06:24:25;;;;;;;18.10;4.30;;;;;;;;;;5322596;28;20322;-71
2022/07/14 06:26:56;;;;;;;17.95;3.55;;;;;;;;;;5323681;28;20374;-71
2022/07/14 06:29:28;;;;;;;20.00;3.08;;;;;;;;;;5322066;28;20026;-70
2022/07/14 06:31:59;;;;;;;17.05;2.88;;;;;;;;;;5323205;28;20266;-71
2022/07/14 06:34:30;;;;;;;17.35;3.33;;;;;;;;;;5323129;28;20053;-71
2022/07/14 06:37:01;;;;;;;15.25;2.97;;;;;;;;;;5322425;28;20015;-71
2022/07/14 06:39:36;;;;;;;18.65;2.42;;;;;;;;;;5323061;28;20163;-71
2022/07/14 06:42:07;;;;;;;17.55;2.42;;;;;;;;;;5322118;28;20012;-70
2022/07/14 06:44:38;;;;;;;13.65;2.65;;;;;;;;;;5323062;28;20034;-71
2022/07/14 06:47:09;;;;;;;11.73;2.20;;;;;;;;;;5323152;28;20481;-70
2022/07/14 06:49:41;;;;;;;12.23;2.33;;;;;;;;;;5322298;28;20076;-70
2022/07/14 06:52:12;;;;;;;24.13;3.47;;;;;;;;;;5322878;28;20608;-70
2022/07/14 06:54:43;;;;;;;14.63;3.38;;;;;;;;;;5322739;28;20086;-70
2022/07/14 06:57:15;;;;;;;11.93;2.40;;;;;;;;;;5322307;28;20154;-71
2022/07/14 06:59:46;;;;;;;25.27;3.57;;;;;;;;;;5323029;28;20284;-71
2022/07/14 07:02:19;;;;;;;15.68;2.53;;;;;;;;;;5322960;28;20344;-71
2022/07/14 07:06:43;;;;;;;14.45;2.33;;;;;;;;;;5322286;28;20410;-71
2022/07/14 07:07:41;;;;;;;11.20;1.95;;;;;;;;;;5322817;28;20016;-71
2022/07/14 07:10:12;;;;;;;6.50;1.70;;;;;;;;;;5322180;28;20038;-70
2022/07/14 07:12:44;;;;;;;18.63;3.33;;;;;;;;;;5322728;28;20354;-71
2022/07/14 07:15:15;;;;;;;12.57;2.00;;;;;;;;;;5322968;28;20271;-70
2022/07/14 07:17:46;;;;;;;12.10;2.00;;;;;;;;;;5321783;28;20102;-70
2022/07/14 07:20:17;;;;;;;14.18;2.53;;;;;;;;;;5322709;28;20284;-70
2022/07/14 07:22:49;;;;;;;12.95;2.30;;;;;;;;;;5322636;28;20116;-70
2022/07/14 07:25:20;;;;;;;12.27;2.33;;;;;;;;;;5321551;28;20027;-70
2022/07/14 07:27:51;;;;;;;13.05;2.10;;;;;;;;;;5322926;28;20805;-71
2022/07/14 07:30:22;;;;;;;13.90;1.90;;;;;;;;;;5322325;28;20051;-70
2022/07/14 07:32:53;;;;;;;12.65;2.03;;;;;;;;;;5322528;28;20265;-71
2022/07/14 07:35:25;;;;;;;12.50;1.92;;;;;;;;;;5322474;28;20031;-71
2022/07/14 07:37:56;;;;;;;10.57;1.42;;;;;;;;;;5326327;28;20462;-70
2022/07/14 07:40:27;;;;;;;12.17;2.30;;;;;;;;;;5325349;28;20015;-70
2022/07/14 07:42:58;;;;;;;14.90;2.88;;;;;;;;;;5326958;28;20301;-70
2022/07/14 07:45:29;;;;;;;11.98;1.85;;;;;;;;;;5325462;28;20028;-71
2022/07/14 07:48:04;;;;;;;13.03;2.00;;;;;;;;;;5326528;28;20265;-71
2022/07/14 07:50:35;;;;;;;15.20;2.00;;;;;;;;;;5326311;28;20257;-70
2022/07/14 07:53:07;;;;;;;8.83;1.70;;;;;;;;;;5325480;28;20481;-70
2022/07/14 07:55:38;;;;;;;9.55;1.65;;;;;;;;;;5326481;28;20273;-72
2022/07/14 07:58:09;;;;;;;10.60;1.42;;;;;;;;;;5326288;28;20019;-73
2022/07/14 08:00:40;;;;;;;8.37;1.70;;;;;;;;;;5325541;28;20472;-71
2022/07/14 08:03:12;;;;;;;11.32;1.38;;;;;;;;;;5321030;28;20277;-70
2022/07/14 08:05:43;;;;;;;10.68;1.30;;;;;;;;;;5325771;28;20297;-70
2022/07/14 08:08:14;;;;;;;10.25;1.20;;;;;;;;;;5325189;28;20018;-71
2022/07/14 08:10:45;;;;;;;9.20;1.40;;;;;;;;;;5325494;28;20064;-69
2022/07/14 08:13:17;;;;;;;13.83;1.63;;;;;;;;;;5325513;28;20016;-72
2022/07/14 08:15:48;;;;;;;7.90;1.10;;;;;;;;;;5325034;28;20269;-72
2022/07/14 08:18:19;;;;;;;6.05;1.33;;;;;;;;;;5325206;28;20305;-72
2022/07/14 08:20:52;;;;;;;6.68;0.70;;;;;;;;;;5323900;28;20121;-72
2022/07/14 08:23:24;;;;;;;8.35;0.90;;;;;;;;;;5325328;28;20273;-73
2022/07/14 08:25:55;;;;;;;11.63;1.33;;;;;;;;;;5325451;28;20035;-73
2022/07/14 08:28:26;;;;;;;5.18;1.02;;;;;;;;;;5324456;28;20023;-73
2022/07/14 08:30:57;;;;;;;10.68;1.77;;;;;;;;;;5325982;28;20020;-71
2022/07/14 08:33:28;;;;;;;6.13;0.82;;;;;;;;;;5325093;28;20103;-72
2022/07/14 08:36:00;;;;;;;8.05;0.90;;;;;;;;;;5324787;28;20514;-73
2022/07/14 08:38:31;;;;;;;8.95;1.50;;;;;;;;;;5325489;28;20027;-72
2022/07/14 08:41:02;;;;;;;8.50;1.23;;;;;;;;;;5325418;28;20012;-69
2022/07/14 08:43:34;;;;;;;10.80;1.00;;;;;;;;;;5324746;28;20019;-73
2022/07/14 08:46:05;;;;;;;8.52;1.10;;;;;;;;;;5325345;28;20024;-71
2022/07/14 08:48:36;;;;;;;7.17;0.80;;;;;;;;;;5324911;28;20020;-71
2022/07/14 08:51:08;;;;;;;12.25;1.27;;;;;;;;;;5324370;28;20735;-71
2022/07/14 08:53:40;;;;;;;8.98;0.98;;;;;;;;;;5325083;28;20039;-71
2022/07/14 08:56:11;;;;;;;6.97;1.07;;;;;;;;;;5324325;28;20015;-72
2022/07/14 08:58:44;;;;;;;6.95;0.90;;;;;;;;;;5325227;28;20270;-72
2022/07/14 09:01:16;;;;;;;7.35;0.80;;;;;;;;;;5325005;28;20116;-72
2022/07/14 09:03:49;;;;;;;5.15;0.88;;;;;;;;;;5324060;28;20024;-72
2022/07/14 09:06:39;;;;;;;4.32;0.80;;;;;;;;;;5324622;28;20019;-72
2022/07/14 09:09:13;;;;;;;6.68;0.70;;;;;;;;;;5324879;28;20027;-73
2022/07/14 09:12:07;;;;;;;6.53;0.70;;;;;;;;;;5323891;28;20048;-72
2022/07/14 09:17:53;;;;;;;6.10;0.73;;;;;;;;;;5323878;28;20020;-73
2022/07/14 09:20:28;;;;;;;6.93;0.80;;;;;;;;;;5324338;28;20483;-73
2022/07/14 09:23:00;;;;;;;7.15;1.30;;;;;;;;;;5324565;28;20368;-72
2022/07/14 09:25:34;;;;;;;7.43;0.82;;;;;;;;;;5323569;28;20039;-72
2022/07/14 09:28:08;;;;;;;7.32;0.98;;;;;;;;;;5324446;28;20068;-73
2022/07/14 09:30:39;;;;;;;6.75;0.90;;;;;;;;;;5324468;28;20508;-71
2022/07/14 09:33:10;;;;;;;9.23;0.73;;;;;;;;;;5323538;28;20047;-73
2022/07/14 09:35:42;;;;;;;5.82;0.82;;;;;;;;;;5324457;28;20025;-74
2022/07/14 09:38:16;;;;;;;7.47;1.20;;;;;;;;;;5323553;28;20363;-74
2022/07/14 09:40:47;;;;;;;5.55;0.70;;;;;;;;;;5324274;28;20042;-73
2022/07/14 09:43:19;;;;;;;4.97;0.65;;;;;;;;;;5323842;28;20023;-73
2022/07/14 09:45:50;;;;;;;5.33;0.70;;;;;;;;;;5323826;28;20023;-73
2022/07/14 09:48:22;;;;;;;3.25;0.60;;;;;;;;;;5324135;28;20046;-75
2022/07/14 09:50:56;;;;;;;7.07;0.60;;;;;;;;;;5324467;28;20020;-77
2022/07/14 09:53:29;;;;;;;4.18;0.50;;;;;;;;;;5323063;28;20016;-75
2022/07/14 09:56:00;;;;;;;5.35;0.80;;;;;;;;;;5324027;28;20069;-76
2022/07/14 09:58:51;;;;;;;5.20;0.40;;;;;;;;;;5323604;28;20007;-75
2022/07/14 10:01:25;;;;;;;5.20;0.73;;;;;;;;;;5323028;28;20027;-76
2022/07/14 10:03:57;;;;;;;5.68;0.40;;;;;;;;;;5324281;28;20459;-76
2022/07/14 10:06:29;;;;;;;2.80;0.40;;;;;;;;;;5322934;28;20019;-77
2022/07/14 10:09:00;;;;;;;3.50;0.40;;;;;;;;;;5323780;28;20083;-76
2022/07/14 10:11:32;;;;;;;3.50;0.40;;;;;;;;;;5323698;28;20467;-75
2022/07/14 10:14:03;;;;;;;8.50;0.50;;;;;;;;;;5323075;28;20022;-76
2022/07/14 10:16:35;;;;;;;2.65;0.50;;;;;;;;;;5323724;28;20095;-75
2022/07/14 10:19:07;;;;;;;4.07;0.47;;;;;;;;;;5323752;28;20043;-75
2022/07/14 10:21:38;;;;;;;3.42;0.50;;;;;;;;;;5322687;28;20135;-74
2022/07/14 10:24:09;;;;;;;9.13;0.50;;;;;;;;;;5323661;28;20458;-75
2022/07/14 10:26:41;;;;;;;4.68;1.00;;;;;;;;;;5323657;28;20068;-74
2022/07/14 10:29:13;;;;;;;5.55;0.50;;;;;;;;;;5322762;28;20108;-73
2022/07/14 10:32:02;;;;;;;5.75;0.45;;;;;;;;;;5323777;28;20018;-73
2022/07/14 10:35:02;;;;;;;5.35;0.40;;;;;;;;;;5322892;28;20015;-72
2022/07/14 10:37:34;;;;;;;6.00;0.55;;;;;;;;;;5250602;28;20031;-72
2022/07/14 10:40:23;;;;;;;5.68;0.50;;;;;;;;;;5323314;28;20027;-74
2022/07/14 10:43:00;;;;;;;4.93;0.70;;;;;;;;;;5322808;28;20068;-74
2022/07/14 10:45:31;;;;;;;4.10;0.40;;;;;;;;;;5323122;28;20039;-74
2022/07/14 10:48:04;;;;;;;17.92;1.00;;;;;;;;;;5323295;28;20466;-74
2022/07/14 10:50:35;;;;;;;5.85;0.70;;;;;;;;;;5322197;28;20028;-76
2022/07/14 10:53:06;;;;;;;5.17;0.40;;;;;;;;;;5323444;28;20509;-74
2022/07/14 10:55:38;;;;;;;4.03;0.63;;;;;;;;;;5322542;28;20282;-74
2022/07/14 10:58:09;;;;;;;3.35;0.45;;;;;;;;;;5323244;28;20423;-72
2022/07/14 11:00:40;;;;;;;6.03;0.52;;;;;;;;;;5323134;28;20069;-72
2022/07/14 11:03:18;;;;;;;9.38;0.50;;;;;;;;;;5322677;28;20169;-72
2022/07/14 11:06:08;;;;;;;4.47;0.40;;;;;;;;;;5323562;28;20475;-72
2022/07/14 11:08:41;;;;;;;4.28;0.50;;;;;;;;;;5323081;28;20019;-72
2022/07/14 11:11:32;;;;;;;7.30;0.40;;;;;;;;;;5324830;28;20102;-72
2022/07/14 11:14:13;;;;;;;4.38;0.45;;;;;;;;;;5327151;28;20019;-72
2022/07/14 11:16:47;;;;;;;5.05;0.50;;;;;;;;;;5326476;28;20016;-72
2022/07/14 11:19:24;;;;;;;3.88;0.47;;;;;;;;;;5326660;28;20031;-73
2022/07/14 11:22:11;;;;;;;3.60;0.40;;;;;;;;;;5327160;28;20044;-72
2022/07/14 11:24:48;;;;;;;7.82;0.50;;;;;;;;;;5326302;28;20438;-74
2022/07/14 11:27:32;;;;;;;7.32;0.73;;;;;;;;;;5326680;28;20018;-73
2022/07/14 11:30:22;;;;;;;4.53;0.50;;;;;;;;;;5326882;28;20443;-72
2022/07/14 11:32:58;;;;;;;5.43;0.70;;;;;;;;;;5326517;28;20042;-72
2022/07/14 11:36:19;;;;;;;3.25;0.40;;;;;;;;;;5326522;28;20047;-72
2022/07/14 11:39:10;;;;;;;3.53;0.50;;;;;;;;;;5291283;28;20085;-73
2022/07/14 11:41:42;;;;;;;4.28;0.50;;;;;;;;;;5326844;28;20110;-73
2022/07/14 11:44:32;;;;;;;10.45;0.60;;;;;;;;;;5326535;28;20217;-72
2022/07/14 11:47:07;;;;;;;4.93;0.60;;;;;;;;;;5326618;28;20015;-73
2022/07/14 11:49:39;;;;;;;4.82;0.50;;;;;;;;;;5326623;28;20106;-73
2022/07/14 11:52:10;;;;;;;3.72;0.40;;;;;;;;;;5325792;28;20418;-73
2022/07/14 11:54:42;;;;;;;4.00;0.30;;;;;;;;;;5326249;28;20016;-72
2022/07/14 11:57:13;;;;;;;5.75;0.98;;;;;;;;;;5326280;27;20084;-73
2022/07/14 11:59:45;;;;;;;2.78;0.40;;;;;;;;;;5325653;28;20416;-72
2022/07/14 12:02:18;;;;;;;5.15;0.55;;;;;;;;;;5326180;28;20331;-74
2022/07/14 12:04:52;;;;;;;7.18;0.50;;;;;;;;;;5326395;28;20027;-71
2022/07/14 12:07:25;;;;;;;2.15;0.40;;;;;;;;;;5324846;28;20378;-72
2022/07/14 12:09:56;;;;;;;7.18;0.40;;;;;;;;;;5326273;28;20023;-73
2022/07/14 12:12:38;;;;;;;3.85;0.40;;;;;;;;;;5325549;28;20022;-73
2022/07/14 12:15:09;;;;;;;7.00;0.52;;;;;;;;;;5325914;27;20073;-72
2022/07/14 12:17:47;;;;;;;5.00;0.40;;;;;;;;;;5325926;28;20420;-72
2022/07/14 12:20:19;;;;;;;;;;;;;;;;;;5325382;28;20020;-73
2022/07/14 12:22:51;;;;;;;3.22;0.40;;;;;;;;;;5324777;28;19922;-72
2022/07/14 12:25:25;;;;;;;4.75;0.60;;;;;;;;;;5324305;28;20487;-70
2022/07/14 12:28:00;;;;;;;3.95;0.80;;;;;;;;;;5325104;28;20011;-71
2022/07/14 12:30:47;;;;;;;6.57;0.50;;;;;;;;;;5325579;27;20085;-71
2022/07/14 12:33:26;;;;;;;3.75;0.40;;;;;;;;;;5325294;28;20103;-71
2022/07/14 12:35:59;;;;;;;4.85;0.50;;;;;;;;;;5324442;28;20042;-74
2022/07/14 12:38:32;;;;;;;2.72;0.40;;;;;;;;;;5324802;28;20077;-69
2022/07/14 12:41:03;;;;;;;7.65;0.40;;;;;;;;;;5324446;28;20016;-72
2022/07/14 12:43:36;;;;;;;5.88;0.50;;;;;;;;;;5325112;27;20020;-71
2022/07/14 12:46:07;;;;;;;3.50;0.40;;;;;;;;;;5324719;28;20031;-72
2022/07/14 12:48:48;;;;;;;5.57;0.60;;;;;;;;;;5322731;28;20024;-72
2022/07/14 12:51:23;;;;;;;5.68;0.55;;;;;;;;;;5325002;28;20183;-72
2022/07/14 12:54:08;;;;;;;4.50;0.40;;;;;;;;;;5325121;28;20020;-72
2022/07/14 12:56:53;;;;;;;4.32;0.40;;;;;;;;;;5323118;28;20019;-72
2022/07/14 12:59:29;;;;;;;3.03;0.50;;;;;;;;;;5323763;28;20549;-72
2022/07/14 13:02:05;;;;;;;8.30;0.40;;;;;;;;;;5323288;27;20105;-72
2022/07/14 13:04:38;;;;;;;7.40;0.50;;;;;;;;;;5323888;28;20020;-72
2022/07/14 13:07:14;;;;;;;4.25;0.65;;;;;;;;;;5324434;28;20019;-72
2022/07/14 13:10:04;;;;;;;6.63;0.50;;;;;;;;;;5323993;28;20019;-72
2022/07/14 13:12:37;;;;;;;3.97;0.43;;;;;;;;;;5324883;28;20098;-73
2022/07/14 13:15:18;;;;;;;2.97;0.40;;;;;;;;;;5324922;27;20374;-73
2022/07/14 13:17:59;;;;;;;6.45;0.77;;;;;;;;;;5324507;28;20110;-72
2022/07/14 13:20:48;;;;;;;2.63;0.43;;;;;;;;;;5324727;28;20060;-73
2022/07/14 13:23:19;;;;;;;2.97;0.50;;;;;;;;;;5323539;28;20046;-72
2022/07/14 13:25:51;;;;;;;4.75;0.50;;;;;;;;;;5324475;28;20043;-73
2022/07/14 13:28:26;;;;;;;4.60;0.40;;;;;;;;;;5324139;28;20458;-72
2022/07/14 13:30:57;;;;;;;9.52;0.50;;;;;;;;;;5324034;28;20431;-72
2022/07/14 13:33:28;;;;;;;4.70;0.40;;;;;;;;;;5323322;28;20102;-74
2022/07/14 13:36:01;;;;;;;4.53;0.32;;;;;;;;;;5324034;28;20734;-76
2022/07/14 13:38:32;;;;;;;4.82;0.50;;;;;;;;;;5323615;28;20311;-75
2022/07/14 13:41:05;;;;;;;5.35;0.82;;;;;;;;;;5324005;28;20102;-75
2022/07/14 13:43:36;;;;;;;4.97;0.40;;;;;;;;;;5324201;28;20022;-77
2022/07/14 13:46:09;;;;;;;2.83;0.40;;;;;;;;;;5323233;28;20028;-75
2022/07/14 13:48:40;;;;;;;2.97;0.52;;;;;;;;;;5323770;28;20008;-72
2022/07/14 13:54:01;;;;;;;5.00;0.45;;;;;;;;;;5324351;28;20027;-72
2022/07/14 13:56:32;;;;;;;3.88;0.40;;;;;;;;;;5324015;28;20012;-72
2022/07/14 13:59:04;;;;;;;4.72;0.50;;;;;;;;;;5323125;28;20008;-74
2022/07/14 14:01:36;;;;;;;5.05;0.40;;;;;;;;;;5323359;28;20028;-74
2022/07/14 14:04:07;;;;;;;5.53;0.32;;;;;;;;;;5323432;28;20024;-73
2022/07/14 14:06:41;;;;;;;7.57;0.47;;;;;;;;;;5322699;28;20078;-74
2022/07/14 14:09:13;;;;;;;10.10;0.40;;;;;;;;;;5323363;28;20268;-74
2022/07/14 14:11:45;;;;;;;9.07;0.52;;;;;;;;;;5323481;28;20418;-71
2022/07/14 14:14:17;;;;;;;8.88;0.43;;;;;;;;;;5322673;28;20023;-74
2022/07/14 14:16:48;;;;;;;12.75;0.50;;;;;;;;;;5323840;28;20427;-73
2022/07/14 14:19:19;;;;;;;5.67;0.40;;;;;;;;;;5322318;28;20107;-72
2022/07/14 14:21:51;;;;;;;5.77;0.60;;;;;;;;;;5323791;28;20711;-72
2022/07/14 14:24:22;;;;;;;38.22;1.75;;;;;;;;;;5323074;28;20376;-72
2022/07/14 14:26:55;;;;;;;5.50;0.80;;;;;;;;;;5322833;28;20015;-73
2022/07/14 14:29:26;;;;;;;6.50;0.40;;;;;;;;;;5323104;28;20023;-72
2022/07/14 14:31:58;;;;;;;5.38;0.40;;;;;;;;;;5323629;28;20016;-72
2022/07/14 14:34:29;;;;;;;2.63;0.40;;;;;;;;;;5322397;28;20381;-72
2022/07/14 14:37:00;;;;;;;3.77;0.50;;;;;;;;;;5322603;28;20037;-72
2022/07/14 14:39:31;;;;;;;4.35;0.35;;;;;;;;;;5323124;28;20620;-72
2022/07/14 14:42:03;;;;;;;5.67;0.60;;;;;;;;;;5322327;28;20377;-74
2022/07/14 14:44:34;;;;;;;3.42;0.32;;;;;;;;;;5323245;28;20045;-74
2022/07/14 14:47:05;;;;;;;5.22;0.50;;;;;;;;;;5327155;28;20024;-73
2022/07/14 14:49:36;;;;;;;9.23;0.40;;;;;;;;;;5327060;28;20033;-74
2022/07/14 14:52:07;;;;;;;6.55;0.50;;;;;;;;;;5327188;28;20016;-73
2022/07/14 14:54:38;;;;;;;6.20;0.80;;;;;;;;;;5326925;28;20045;-73
2022/07/14 14:57:10;;;;;;;5.85;0.45;;;;;;;;;;5327541;28;20019;-74
2022/07/14 14:59:41;;;;;;;5.43;0.43;;;;;;;;;;5327376;28;20020;-74
2022/07/14 15:02:12;;;;;;;4.78;0.63;;;;;;;;;;5326520;27;20032;-74
2022/07/14 15:04:44;;;;;;;6.27;0.70;;;;;;;;;;5327316;28;20390;-74
2022/07/14 15:07:15;;;;;;;11.52;0.50;;;;;;;;;;5327233;28;20264;-74
2022/07/14 15:09:46;;;;;;;3.00;0.70;;;;;;;;;;5326380;28;20027;-74
2022/07/14 15:12:17;;;;;;;5.97;0.60;;;;;;;;;;5327148;28;20023;-74
2022/07/14 15:14:49;;;;;;;8.30;0.60;;;;;;;;;;5327089;28;20056;-74
2022/07/14 15:17:21;;;;;;;4.65;0.50;;;;;;;;;;5326081;28;20253;-74
2022/07/14 15:19:52;;;;;;;5.00;0.40;;;;;;;;;;5327590;28;20474;-74
2022/07/14 15:22:23;;;;;;;4.32;0.43;;;;;;;;;;5326601;28;20043;-74
2022/07/14 15:24:54;;;;;;;9.07;0.40;;;;;;;;;;5326244;28;20024;-73